Suffield, CT (06078)

1:57 PM EST on December 21, 2014 (GMT -0500)
Cooks Golf Clubs | Change Station
CLOSE
Current Station
Personal Weather Station
Location: Agawam, MA
Elevation: 125 ft
Nearby Weather Stations

Elev 125 ft 42.05 °N, 72.62 °W | Updated 57 seconds ago

Snow
Snow
33.1 °F
Feels Like 29 °F
N
4.2
Wind Variable Wind from NW

Today
High -- | Low -- °F
--% Chance of Precip.
Yesterday
High -- | Low -- °F
Precip. -- in
7:15 AM 4:22 PM
Waning Crescent, 0% visible
Pressure 30.29 in
Visibility 4.0 miles
Clouds Mostly Cloudy 900 ft
Mostly Cloudy 1800 ft
Overcast 3000 ft
Windchill 29 °F
Dew Point 31 °F
Humidity 91%
Rainfall 0.00 in
Snow Depth Not available.
UV 0 out of 12
Pollen .10 out of 12
Air Quality Not available.
Flu Activity Not available.
METAR KBDL 211851Z 36006KT 4SM -SN BR BKN009 BKN018 OVC030 01/M01 A3028 RMK AO2 SNE28B45 SLP255 P0000 T00061011 $

More Conditions Fewer Conditions

Pressure 30.29 in
Visibility 4.0 miles
Clouds Mostly Cloudy 900 ft
Mostly Cloudy 1800 ft
Overcast 3000 ft
Windchill 29 °F
Dew Point 31 °F
Humidity 91%
Rainfall 0.00 in
Snow Depth Not available.
UV 0 out of 12
Pollen .10 out of 12
Air Quality Not available.
Flu Activity Not available.
METAR KBDL 211851Z 36006KT 4SM -SN BR BKN009 BKN018 OVC030 01/M01 A3028 RMK AO2 SNE28B45 SLP255 P0000 T00061011 $

More Conditions Fewer Conditions

10-Day Weather Forecast

Almanac

Astronomy

Dec. 21, 2014 Rise Set
Actual Time
Civil Twilight
Nautical Twilight
Astronomical Twilight
Moon
Length of Visible Light
Length of Day
Tomorrow will be .
, % of the Moon is Illuminated

Today's Extremes

State Highs State Lows

Community

WunderPhotos

Upload Photos

1,779,451 photos uploaded!

WunderBlogs® & News

Nearby

Air Quality

  Air Quality AQ Index Pollutant
Not available.

Snow Depth

Station Depth Elevation

Earthquake Activity

City Distance Mag. Time & Date
Minimum magnitude displayed is 2.5.

Coastal Water Temperatures

Place Temperature

Nearby Weather Stations